sensor_id;sensor_type;location;lat;lon;timestamp;P1;durP1;ratioP1;P2;durP2;ratioP2
6979;SDS011;3530;52.832;10.680;2023-05-07T00:00:11;5.07;;;4.57;;
6979;SDS011;3530;52.832;10.680;2023-05-07T00:02:57;5.10;;;4.60;;
6979;SDS011;3530;52.832;10.680;2023-05-07T00:05:42;4.93;;;4.53;;
6979;SDS011;3530;52.832;10.680;2023-05-07T00:08:28;5.15;;;4.65;;
6979;SDS011;3530;52.832;10.680;2023-05-07T00:11:14;5.47;;;4.30;;
6979;SDS011;3530;52.832;10.680;2023-05-07T00:14:00;5.63;;;4.57;;
6979;SDS011;3530;52.832;10.680;2023-05-07T00:16:45;5.68;;;5.07;;
6979;SDS011;3530;52.832;10.680;2023-05-07T00:19:31;6.00;;;5.18;;
6979;SDS011;3530;52.832;10.680;2023-05-07T00:22:17;3.83;;;3.10;;
6979;SDS011;3530;52.832;10.680;2023-05-07T00:25:02;6.45;;;5.85;;
6979;SDS011;3530;52.832;10.680;2023-05-07T00:27:48;5.82;;;5.22;;
6979;SDS011;3530;52.832;10.680;2023-05-07T00:30:34;5.55;;;4.68;;
6979;SDS011;3530;52.832;10.680;2023-05-07T00:33:20;6.53;;;5.93;;
6979;SDS011;3530;52.832;10.680;2023-05-07T00:36:06;5.95;;;5.28;;
6979;SDS011;3530;52.832;10.680;2023-05-07T00:38:53;4.97;;;4.50;;
6979;SDS011;3530;52.832;10.680;2023-05-07T00:41:39;5.80;;;5.10;;
6979;SDS011;3530;52.832;10.680;2023-05-07T00:44:25;4.70;;;4.30;;
6979;SDS011;3530;52.832;10.680;2023-05-07T00:47:10;4.65;;;4.03;;
6979;SDS011;3530;52.832;10.680;2023-05-07T00:49:56;6.93;;;5.55;;
6979;SDS011;3530;52.832;10.680;2023-05-07T00:52:42;6.25;;;5.60;;
6979;SDS011;3530;52.832;10.680;2023-05-07T00:55:28;5.90;;;5.40;;
6979;SDS011;3530;52.832;10.680;2023-05-07T00:58:14;6.03;;;5.43;;
6979;SDS011;3530;52.832;10.680;2023-05-07T01:01:00;5.30;;;4.25;;
6979;SDS011;3530;52.832;10.680;2023-05-07T01:03:46;6.45;;;5.85;;
6979;SDS011;3530;52.832;10.680;2023-05-07T01:06:31;7.25;;;6.10;;
6979;SDS011;3530;52.832;10.680;2023-05-07T01:09:17;7.85;;;6.15;;
6979;SDS011;3530;52.832;10.680;2023-05-07T01:12:05;6.60;;;6.00;;
6979;SDS011;3530;52.832;10.680;2023-05-07T01:14:51;7.38;;;5.90;;
6979;SDS011;3530;52.832;10.680;2023-05-07T01:17:39;6.50;;;5.90;;
6979;SDS011;3530;52.832;10.680;2023-05-07T01:20:26;6.72;;;6.03;;
6979;SDS011;3530;52.832;10.680;2023-05-07T01:23:13;8.68;;;7.18;;
6979;SDS011;3530;52.832;10.680;2023-05-07T01:25:59;6.85;;;6.13;;
6979;SDS011;3530;52.832;10.680;2023-05-07T01:28:45;6.18;;;5.57;;
6979;SDS011;3530;52.832;10.680;2023-05-07T01:31:31;6.72;;;6.13;;
6979;SDS011;3530;52.832;10.680;2023-05-07T01:34:18;5.18;;;4.68;;
6979;SDS011;3530;52.832;10.680;2023-05-07T01:37:04;6.55;;;5.95;;
6979;SDS011;3530;52.832;10.680;2023-05-07T01:39:50;6.68;;;6.07;;
6979;SDS011;3530;52.832;10.680;2023-05-07T01:42:36;6.15;;;5.25;;
6979;SDS011;3530;52.832;10.680;2023-05-07T01:45:22;6.00;;;5.40;;
6979;SDS011;3530;52.832;10.680;2023-05-07T01:48:09;6.75;;;6.00;;
6979;SDS011;3530;52.832;10.680;2023-05-07T01:50:55;3.38;;;3.08;;
6979;SDS011;3530;52.832;10.680;2023-05-07T01:53:40;7.72;;;6.55;;
6979;SDS011;3530;52.832;10.680;2023-05-07T01:56:27;5.30;;;4.50;;
6979;SDS011;3530;52.832;10.680;2023-05-07T01:59:12;6.47;;;4.97;;
6979;SDS011;3530;52.832;10.680;2023-05-07T02:01:58;5.60;;;5.05;;
6979;SDS011;3530;52.832;10.680;2023-05-07T02:04:44;5.03;;;4.53;;
6979;SDS011;3530;52.832;10.680;2023-05-07T02:07:30;5.68;;;5.18;;
6979;SDS011;3530;52.832;10.680;2023-05-07T02:10:15;7.30;;;4.82;;
6979;SDS011;3530;52.832;10.680;2023-05-07T02:13:01;6.38;;;5.18;;
6979;SDS011;3530;52.832;10.680;2023-05-07T02:15:47;8.02;;;6.85;;
6979;SDS011;3530;52.832;10.680;2023-05-07T02:18:35;9.13;;;7.18;;
6979;SDS011;3530;52.832;10.680;2023-05-07T02:21:21;5.53;;;5.05;;
6979;SDS011;3530;52.832;10.680;2023-05-07T02:24:06;5.35;;;4.85;;
6979;SDS011;3530;52.832;10.680;2023-05-07T02:26:52;5.03;;;4.53;;
6979;SDS011;3530;52.832;10.680;2023-05-07T02:29:38;5.82;;;4.93;;
6979;SDS011;3530;52.832;10.680;2023-05-07T02:32:24;6.75;;;6.05;;
6979;SDS011;3530;52.832;10.680;2023-05-07T02:35:09;7.03;;;6.32;;
6979;SDS011;3530;52.832;10.680;2023-05-07T02:37:55;5.05;;;4.57;;
6979;SDS011;3530;52.832;10.680;2023-05-07T02:40:41;5.35;;;4.85;;
6979;SDS011;3530;52.832;10.680;2023-05-07T02:43:26;7.63;;;6.93;;
6979;SDS011;3530;52.832;10.680;2023-05-07T02:46:12;6.35;;;5.53;;
6979;SDS011;3530;52.832;10.680;2023-05-07T02:48:58;7.38;;;6.65;;
6979;SDS011;3530;52.832;10.680;2023-05-07T02:51:43;9.02;;;8.13;;
6979;SDS011;3530;52.832;10.680;2023-05-07T02:54:29;9.68;;;7.38;;
6979;SDS011;3530;52.832;10.680;2023-05-07T02:57:15;8.38;;;6.65;;
6979;SDS011;3530;52.832;10.680;2023-05-07T03:00:09;8.10;;;7.22;;
6979;SDS011;3530;52.832;10.680;2023-05-07T03:02:58;9.52;;;7.57;;
6979;SDS011;3530;52.832;10.680;2023-05-07T03:05:44;6.47;;;5.85;;
6979;SDS011;3530;52.832;10.680;2023-05-07T03:08:30;7.47;;;6.78;;
6979;SDS011;3530;52.832;10.680;2023-05-07T03:11:15;5.50;;;5.10;;
6979;SDS011;3530;52.832;10.680;2023-05-07T03:14:01;5.45;;;4.80;;
6979;SDS011;3530;52.832;10.680;2023-05-07T03:16:47;7.80;;;5.50;;
6979;SDS011;3530;52.832;10.680;2023-05-07T03:19:32;5.80;;;5.30;;
6979;SDS011;3530;52.832;10.680;2023-05-07T03:22:18;5.47;;;4.65;;
6979;SDS011;3530;52.832;10.680;2023-05-07T03:25:04;7.78;;;6.72;;
6979;SDS011;3530;52.832;10.680;2023-05-07T03:27:50;6.70;;;5.47;;
6979;SDS011;3530;52.832;10.680;2023-05-07T03:30:36;7.53;;;6.28;;
6979;SDS011;3530;52.832;10.680;2023-05-07T03:33:21;5.20;;;4.70;;
6979;SDS011;3530;52.832;10.680;2023-05-07T03:36:07;6.43;;;5.35;;
6979;SDS011;3530;52.832;10.680;2023-05-07T03:38:53;7.55;;;6.50;;
6979;SDS011;3530;52.832;10.680;2023-05-07T03:41:38;6.38;;;5.75;;
6979;SDS011;3530;52.832;10.680;2023-05-07T03:44:24;4.63;;;4.18;;
6979;SDS011;3530;52.832;10.680;2023-05-07T03:47:10;6.75;;;6.07;;
6979;SDS011;3530;52.832;10.680;2023-05-07T03:49:55;5.60;;;5.10;;
6979;SDS011;3530;52.832;10.680;2023-05-07T03:52:41;7.68;;;6.43;;
6979;SDS011;3530;52.832;10.680;2023-05-07T03:55:26;7.40;;;5.90;;
6979;SDS011;3530;52.832;10.680;2023-05-07T03:58:12;9.75;;;5.85;;
6979;SDS011;3530;52.832;10.680;2023-05-07T04:00:58;7.57;;;6.88;;
6979;SDS011;3530;52.832;10.680;2023-05-07T04:03:43;8.85;;;7.07;;
6979;SDS011;3530;52.832;10.680;2023-05-07T04:06:29;7.13;;;5.88;;
6979;SDS011;3530;52.832;10.680;2023-05-07T04:09:15;9.20;;;7.10;;
6979;SDS011;3530;52.832;10.680;2023-05-07T04:12:01;8.38;;;5.82;;
6979;SDS011;3530;52.832;10.680;2023-05-07T04:14:47;9.88;;;7.90;;
6979;SDS011;3530;52.832;10.680;2023-05-07T04:17:32;6.32;;;5.63;;
6979;SDS011;3530;52.832;10.680;2023-05-07T04:20:18;9.40;;;7.90;;
6979;SDS011;3530;52.832;10.680;2023-05-07T04:23:03;9.60;;;6.97;;
6979;SDS011;3530;52.832;10.680;2023-05-07T04:25:49;8.43;;;7.63;;
6979;SDS011;3530;52.832;10.680;2023-05-07T04:28:35;10.18;;;8.98;;
6979;SDS011;3530;52.832;10.680;2023-05-07T04:31:21;10.35;;;6.00;;
6979;SDS011;3530;52.832;10.680;2023-05-07T04:34:07;9.30;;;7.07;;
6979;SDS011;3530;52.832;10.680;2023-05-07T04:36:52;7.70;;;6.53;;
6979;SDS011;3530;52.832;10.680;2023-05-07T04:39:38;10.23;;;7.13;;
6979;SDS011;3530;52.832;10.680;2023-05-07T04:42:24;7.90;;;6.82;;
6979;SDS011;3530;52.832;10.680;2023-05-07T04:45:10;7.40;;;5.38;;
6979;SDS011;3530;52.832;10.680;2023-05-07T04:47:55;6.15;;;4.30;;
6979;SDS011;3530;52.832;10.680;2023-05-07T04:50:41;6.65;;;5.72;;
6979;SDS011;3530;52.832;10.680;2023-05-07T04:53:27;7.18;;;5.97;;
6979;SDS011;3530;52.832;10.680;2023-05-07T04:56:12;8.82;;;6.82;;
6979;SDS011;3530;52.832;10.680;2023-05-07T04:58:58;9.43;;;7.97;;
6979;SDS011;3530;52.832;10.680;2023-05-07T05:01:44;7.22;;;6.38;;
6979;SDS011;3530;52.832;10.680;2023-05-07T05:04:29;9.15;;;7.07;;
6979;SDS011;3530;52.832;10.680;2023-05-07T05:07:15;7.50;;;6.50;;
6979;SDS011;3530;52.832;10.680;2023-05-07T05:10:01;8.07;;;7.20;;
6979;SDS011;3530;52.832;10.680;2023-05-07T05:12:48;10.45;;;6.70;;
6979;SDS011;3530;52.832;10.680;2023-05-07T05:15:34;6.55;;;5.95;;
6979;SDS011;3530;52.832;10.680;2023-05-07T05:18:19;8.13;;;7.32;;
6979;SDS011;3530;52.832;10.680;2023-05-07T05:21:05;10.63;;;6.95;;
6979;SDS011;3530;52.832;10.680;2023-05-07T05:23:51;9.82;;;7.60;;
6979;SDS011;3530;52.832;10.680;2023-05-07T05:26:37;6.22;;;5.15;;
6979;SDS011;3530;52.832;10.680;2023-05-07T05:29:22;10.02;;;7.10;;
6979;SDS011;3530;52.832;10.680;2023-05-07T05:32:08;7.55;;;6.75;;
6979;SDS011;3530;52.832;10.680;2023-05-07T05:34:54;8.32;;;6.55;;
6979;SDS011;3530;52.832;10.680;2023-05-07T05:37:39;6.40;;;5.75;;
6979;SDS011;3530;52.832;10.680;2023-05-07T05:40:25;8.00;;;7.20;;
6979;SDS011;3530;52.832;10.680;2023-05-07T05:43:11;7.28;;;5.97;;
6979;SDS011;3530;52.832;10.680;2023-05-07T05:45:56;9.05;;;7.13;;
6979;SDS011;3530;52.832;10.680;2023-05-07T05:48:42;9.13;;;6.97;;
6979;SDS011;3530;52.832;10.680;2023-05-07T05:51:28;7.68;;;6.78;;
6979;SDS011;3530;52.832;10.680;2023-05-07T05:54:13;7.55;;;6.10;;
6979;SDS011;3530;52.832;10.680;2023-05-07T05:56:59;7.70;;;6.90;;
6979;SDS011;3530;52.832;10.680;2023-05-07T05:59:45;9.38;;;7.68;;
6979;SDS011;3530;52.832;10.680;2023-05-07T06:02:31;8.20;;;6.18;;
6979;SDS011;3530;52.832;10.680;2023-05-07T06:05:17;10.88;;;7.38;;
6979;SDS011;3530;52.832;10.680;2023-05-07T06:08:03;7.82;;;5.78;;
6979;SDS011;3530;52.832;10.680;2023-05-07T06:10:49;7.05;;;5.28;;
6979;SDS011;3530;52.832;10.680;2023-05-07T06:13:34;4.85;;;4.35;;
6979;SDS011;3530;52.832;10.680;2023-05-07T06:16:20;9.82;;;5.82;;
6979;SDS011;3530;52.832;10.680;2023-05-07T06:19:06;8.65;;;6.80;;
6979;SDS011;3530;52.832;10.680;2023-05-07T06:21:51;9.65;;;7.22;;
6979;SDS011;3530;52.832;10.680;2023-05-07T06:24:37;8.15;;;6.18;;
6979;SDS011;3530;52.832;10.680;2023-05-07T06:27:23;6.38;;;5.78;;
6979;SDS011;3530;52.832;10.680;2023-05-07T06:30:08;7.97;;;6.15;;
6979;SDS011;3530;52.832;10.680;2023-05-07T06:32:54;9.10;;;7.35;;
6979;SDS011;3530;52.832;10.680;2023-05-07T06:35:40;10.10;;;7.85;;
6979;SDS011;3530;52.832;10.680;2023-05-07T06:38:25;5.70;;;5.13;;
6979;SDS011;3530;52.832;10.680;2023-05-07T06:41:11;10.40;;;7.38;;
6979;SDS011;3530;52.832;10.680;2023-05-07T06:43:57;9.15;;;5.53;;
6979;SDS011;3530;52.832;10.680;2023-05-07T06:46:42;7.20;;;6.35;;
6979;SDS011;3530;52.832;10.680;2023-05-07T06:49:28;8.50;;;5.57;;
6979;SDS011;3530;52.832;10.680;2023-05-07T06:52:14;9.05;;;5.82;;
6979;SDS011;3530;52.832;10.680;2023-05-07T06:54:59;9.70;;;6.70;;
6979;SDS011;3530;52.832;10.680;2023-05-07T06:57:45;9.98;;;7.20;;
6979;SDS011;3530;52.832;10.680;2023-05-07T07:00:31;8.25;;;5.60;;
6979;SDS011;3530;52.832;10.680;2023-05-07T07:03:16;7.80;;;5.53;;
6979;SDS011;3530;52.832;10.680;2023-05-07T07:06:02;6.43;;;5.82;;
6979;SDS011;3530;52.832;10.680;2023-05-07T07:08:48;5.75;;;5.20;;
6979;SDS011;3530;52.832;10.680;2023-05-07T07:11:34;6.53;;;5.78;;
6979;SDS011;3530;52.832;10.680;2023-05-07T07:14:20;8.70;;;6.05;;
6979;SDS011;3530;52.832;10.680;2023-05-07T07:17:05;11.02;;;6.88;;
6979;SDS011;3530;52.832;10.680;2023-05-07T07:19:51;6.38;;;5.65;;
6979;SDS011;3530;52.832;10.680;2023-05-07T07:22:37;5.32;;;4.43;;
6979;SDS011;3530;52.832;10.680;2023-05-07T07:25:22;7.32;;;5.90;;
6979;SDS011;3530;52.832;10.680;2023-05-07T07:28:08;6.78;;;6.18;;
6979;SDS011;3530;52.832;10.680;2023-05-07T07:30:54;6.78;;;6.07;;
6979;SDS011;3530;52.832;10.680;2023-05-07T07:33:40;8.20;;;6.47;;
6979;SDS011;3530;52.832;10.680;2023-05-07T07:36:25;7.25;;;6.55;;
6979;SDS011;3530;52.832;10.680;2023-05-07T07:39:11;6.88;;;5.43;;
6979;SDS011;3530;52.832;10.680;2023-05-07T07:41:57;8.32;;;5.10;;
6979;SDS011;3530;52.832;10.680;2023-05-07T07:44:43;9.82;;;6.50;;
6979;SDS011;3530;52.832;10.680;2023-05-07T07:47:28;7.35;;;5.93;;
6979;SDS011;3530;52.832;10.680;2023-05-07T07:50:14;7.15;;;6.32;;
6979;SDS011;3530;52.832;10.680;2023-05-07T07:53:00;6.38;;;5.60;;
6979;SDS011;3530;52.832;10.680;2023-05-07T07:55:45;6.63;;;5.82;;
6979;SDS011;3530;52.832;10.680;2023-05-07T07:58:31;5.28;;;4.78;;
6979;SDS011;3530;52.832;10.680;2023-05-07T08:01:16;5.78;;;5.18;;
6979;SDS011;3530;52.832;10.680;2023-05-07T08:04:02;6.10;;;5.00;;
6979;SDS011;3530;52.832;10.680;2023-05-07T08:06:48;6.07;;;4.90;;
6979;SDS011;3530;52.832;10.680;2023-05-07T08:09:34;3.97;;;3.58;;
6979;SDS011;3530;52.832;10.680;2023-05-07T08:12:20;5.47;;;4.97;;
6979;SDS011;3530;52.832;10.680;2023-05-07T08:15:05;5.00;;;4.50;;
6979;SDS011;3530;52.832;10.680;2023-05-07T08:17:51;5.75;;;4.72;;
6979;SDS011;3530;52.832;10.680;2023-05-07T08:20:37;4.88;;;3.95;;
6979;SDS011;3530;52.832;10.680;2023-05-07T08:23:24;5.28;;;4.78;;
6979;SDS011;3530;52.832;10.680;2023-05-07T08:26:10;4.75;;;4.35;;
6979;SDS011;3530;52.832;10.680;2023-05-07T08:28:56;4.38;;;3.97;;
6979;SDS011;3530;52.832;10.680;2023-05-07T08:31:42;7.07;;;5.03;;
6979;SDS011;3530;52.832;10.680;2023-05-07T08:34:27;5.03;;;4.57;;
6979;SDS011;3530;52.832;10.680;2023-05-07T08:37:13;6.47;;;5.85;;
6979;SDS011;3530;52.832;10.680;2023-05-07T08:39:59;6.05;;;5.45;;
6979;SDS011;3530;52.832;10.680;2023-05-07T08:42:45;6.53;;;5.85;;
6979;SDS011;3530;52.832;10.680;2023-05-07T08:45:34;7.35;;;5.93;;
6979;SDS011;3530;52.832;10.680;2023-05-07T08:48:21;6.50;;;5.85;;
6979;SDS011;3530;52.832;10.680;2023-05-07T08:51:08;5.13;;;4.63;;
6979;SDS011;3530;52.832;10.680;2023-05-07T08:53:54;10.82;;;5.55;;
6979;SDS011;3530;52.832;10.680;2023-05-07T08:56:39;5.55;;;4.97;;
6979;SDS011;3530;52.832;10.680;2023-05-07T08:59:25;6.65;;;5.95;;
6979;SDS011;3530;52.832;10.680;2023-05-07T09:02:11;5.78;;;5.15;;
6979;SDS011;3530;52.832;10.680;2023-05-07T09:04:57;5.85;;;5.25;;
6979;SDS011;3530;52.832;10.680;2023-05-07T09:07:42;7.68;;;5.90;;
6979;SDS011;3530;52.832;10.680;2023-05-07T09:10:29;5.93;;;5.38;;
6979;SDS011;3530;52.832;10.680;2023-05-07T09:13:14;6.22;;;5.63;;
6979;SDS011;3530;52.832;10.680;2023-05-07T09:16:09;7.07;;;6.35;;
6979;SDS011;3530;52.832;10.680;2023-05-07T09:18:58;6.60;;;4.57;;
6979;SDS011;3530;52.832;10.680;2023-05-07T09:21:45;5.72;;;5.22;;
6979;SDS011;3530;52.832;10.680;2023-05-07T09:24:30;6.10;;;5.55;;
6979;SDS011;3530;52.832;10.680;2023-05-07T09:27:20;4.85;;;4.45;;
6979;SDS011;3530;52.832;10.680;2023-05-07T09:30:06;7.57;;;5.80;;
6979;SDS011;3530;52.832;10.680;2023-05-07T09:32:52;7.03;;;4.93;;
6979;SDS011;3530;52.832;10.680;2023-05-07T09:35:39;5.75;;;4.70;;
6979;SDS011;3530;52.832;10.680;2023-05-07T09:38:25;8.90;;;6.65;;
6979;SDS011;3530;52.832;10.680;2023-05-07T09:41:11;7.50;;;6.60;;
6979;SDS011;3530;52.832;10.680;2023-05-07T09:43:58;5.50;;;5.00;;
6979;SDS011;3530;52.832;10.680;2023-05-07T09:46:45;6.45;;;5.85;;
6979;SDS011;3530;52.832;10.680;2023-05-07T09:49:35;7.10;;;5.95;;
6979;SDS011;3530;52.832;10.680;2023-05-07T09:52:22;5.00;;;4.30;;
6979;SDS011;3530;52.832;10.680;2023-05-07T09:55:08;6.22;;;5.63;;
6979;SDS011;3530;52.832;10.680;2023-05-07T09:57:55;6.93;;;6.22;;
6979;SDS011;3530;52.832;10.680;2023-05-07T10:00:42;6.07;;;5.57;;
6979;SDS011;3530;52.832;10.680;2023-05-07T10:03:28;7.63;;;5.55;;
6979;SDS011;3530;52.832;10.680;2023-05-07T10:06:15;6.88;;;6.20;;
6979;SDS011;3530;52.832;10.680;2023-05-07T10:09:02;7.20;;;6.47;;
6979;SDS011;3530;52.832;10.680;2023-05-07T10:11:50;6.00;;;5.40;;
6979;SDS011;3530;52.832;10.680;2023-05-07T10:14:36;8.40;;;6.38;;
6979;SDS011;3530;52.832;10.680;2023-05-07T10:17:22;7.15;;;5.78;;
6979;SDS011;3530;52.832;10.680;2023-05-07T10:20:08;6.45;;;5.70;;
6979;SDS011;3530;52.832;10.680;2023-05-07T10:22:54;5.95;;;4.45;;
6979;SDS011;3530;52.832;10.680;2023-05-07T10:25:41;6.32;;;4.60;;
6979;SDS011;3530;52.832;10.680;2023-05-07T10:28:27;6.28;;;5.70;;
6979;SDS011;3530;52.832;10.680;2023-05-07T10:31:18;5.53;;;4.45;;
6979;SDS011;3530;52.832;10.680;2023-05-07T10:34:13;5.80;;;5.18;;
6979;SDS011;3530;52.832;10.680;2023-05-07T10:37:03;5.75;;;5.25;;
6979;SDS011;3530;52.832;10.680;2023-05-07T10:39:49;5.93;;;5.38;;
6979;SDS011;3530;52.832;10.680;2023-05-07T10:42:35;6.00;;;5.40;;
6979;SDS011;3530;52.832;10.680;2023-05-07T10:45:21;7.07;;;6.10;;
6979;SDS011;3530;52.832;10.680;2023-05-07T10:48:10;6.15;;;5.35;;
6979;SDS011;3530;52.832;10.680;2023-05-07T10:56:56;8.25;;;5.07;;
6979;SDS011;3530;52.832;10.680;2023-05-07T10:59:42;6.85;;;5.05;;
6979;SDS011;3530;52.832;10.680;2023-05-07T11:05:47;5.97;;;4.63;;
6979;SDS011;3530;52.832;10.680;2023-05-07T11:08:56;6.15;;;5.65;;
6979;SDS011;3530;52.832;10.680;2023-05-07T11:11:49;5.50;;;5.00;;
6979;SDS011;3530;52.832;10.680;2023-05-07T11:17:26;6.00;;;5.03;;
6979;SDS011;3530;52.832;10.680;2023-05-07T11:20:12;5.45;;;4.95;;
6979;SDS011;3530;52.832;10.680;2023-05-07T11:22:58;6.35;;;5.55;;
6979;SDS011;3530;52.832;10.680;2023-05-07T11:25:43;5.57;;;5.05;;
6979;SDS011;3530;52.832;10.680;2023-05-07T11:28:30;7.03;;;5.28;;
6979;SDS011;3530;52.832;10.680;2023-05-07T11:31:19;5.75;;;5.20;;
6979;SDS011;3530;52.832;10.680;2023-05-07T11:34:06;6.78;;;6.07;;
6979;SDS011;3530;52.832;10.680;2023-05-07T11:36:52;7.90;;;5.97;;
6979;SDS011;3530;52.832;10.680;2023-05-07T11:39:38;8.55;;;6.10;;
6979;SDS011;3530;52.832;10.680;2023-05-07T11:42:27;7.93;;;6.00;;
6979;SDS011;3530;52.832;10.680;2023-05-07T11:45:14;6.55;;;5.90;;
6979;SDS011;3530;52.832;10.680;2023-05-07T11:48:09;7.75;;;4.68;;
6979;SDS011;3530;52.832;10.680;2023-05-07T11:53:43;7.05;;;5.20;;
6979;SDS011;3530;52.832;10.680;2023-05-07T11:56:29;6.28;;;5.55;;
6979;SDS011;3530;52.832;10.680;2023-05-07T11:59:22;6.40;;;5.70;;
6979;SDS011;3530;52.832;10.680;2023-05-07T12:02:07;4.93;;;4.53;;
6979;SDS011;3530;52.832;10.680;2023-05-07T12:04:53;6.70;;;4.45;;
6979;SDS011;3530;52.832;10.680;2023-05-07T12:07:40;4.80;;;4.35;;
6979;SDS011;3530;52.832;10.680;2023-05-07T12:10:25;3.88;;;3.58;;
6979;SDS011;3530;52.832;10.680;2023-05-07T12:13:15;4.53;;;4.13;;
6979;SDS011;3530;52.832;10.680;2023-05-07T12:16:01;4.75;;;4.35;;
6979;SDS011;3530;52.832;10.680;2023-05-07T12:18:50;4.43;;;4.03;;
6979;SDS011;3530;52.832;10.680;2023-05-07T12:21:38;4.18;;;3.88;;
6979;SDS011;3530;52.832;10.680;2023-05-07T12:24:24;4.50;;;4.10;;
6979;SDS011;3530;52.832;10.680;2023-05-07T12:27:09;4.85;;;4.30;;
6979;SDS011;3530;52.832;10.680;2023-05-07T12:29:56;4.28;;;3.55;;
6979;SDS011;3530;52.832;10.680;2023-05-07T12:32:43;4.07;;;3.78;;
6979;SDS011;3530;52.832;10.680;2023-05-07T12:35:31;4.00;;;3.70;;
6979;SDS011;3530;52.832;10.680;2023-05-07T12:38:18;4.68;;;3.90;;
6979;SDS011;3530;52.832;10.680;2023-05-07T12:41:05;4.32;;;3.60;;
6979;SDS011;3530;52.832;10.680;2023-05-07T12:43:52;3.55;;;3.25;;
6979;SDS011;3530;52.832;10.680;2023-05-07T12:46:41;4.88;;;4.45;;
6979;SDS011;3530;52.832;10.680;2023-05-07T12:49:27;4.10;;;3.80;;
6979;SDS011;3530;52.832;10.680;2023-05-07T12:52:13;3.20;;;3.00;;
6979;SDS011;3530;52.832;10.680;2023-05-07T12:55:04;5.10;;;4.60;;
6979;SDS011;3530;52.832;10.680;2023-05-07T12:57:51;3.40;;;3.20;;
6979;SDS011;3530;52.832;10.680;2023-05-07T13:00:38;4.30;;;4.00;;
6979;SDS011;3530;52.832;10.680;2023-05-07T13:03:30;4.97;;;4.07;;
6979;SDS011;3530;52.832;10.680;2023-05-07T13:06:17;3.95;;;3.63;;
6979;SDS011;3530;52.832;10.680;2023-05-07T13:09:03;3.88;;;3.40;;
6979;SDS011;3530;52.832;10.680;2023-05-07T13:11:50;3.85;;;3.55;;
6979;SDS011;3530;52.832;10.680;2023-05-07T13:14:35;3.95;;;3.75;;
6979;SDS011;3530;52.832;10.680;2023-05-07T13:17:21;4.20;;;3.90;;
6979;SDS011;3530;52.832;10.680;2023-05-07T13:20:07;4.10;;;3.55;;
6979;SDS011;3530;52.832;10.680;2023-05-07T13:22:54;3.70;;;3.35;;
6979;SDS011;3530;52.832;10.680;2023-05-07T13:25:40;3.72;;;3.42;;
6979;SDS011;3530;52.832;10.680;2023-05-07T13:28:25;3.20;;;3.00;;
6979;SDS011;3530;52.832;10.680;2023-05-07T13:31:11;3.28;;;3.08;;
6979;SDS011;3530;52.832;10.680;2023-05-07T13:33:57;3.88;;;2.92;;
6979;SDS011;3530;52.832;10.680;2023-05-07T13:36:42;3.45;;;3.25;;
6979;SDS011;3530;52.832;10.680;2023-05-07T13:39:28;3.58;;;3.28;;
6979;SDS011;3530;52.832;10.680;2023-05-07T13:42:14;2.53;;;2.33;;
6979;SDS011;3530;52.832;10.680;2023-05-07T13:44:59;2.92;;;2.72;;
6979;SDS011;3530;52.832;10.680;2023-05-07T13:47:46;2.58;;;2.38;;
6979;SDS011;3530;52.832;10.680;2023-05-07T13:50:32;3.20;;;3.00;;
6979;SDS011;3530;52.832;10.680;2023-05-07T13:53:17;3.63;;;3.33;;
6979;SDS011;3530;52.832;10.680;2023-05-07T13:56:03;2.55;;;2.45;;
6979;SDS011;3530;52.832;10.680;2023-05-07T13:58:49;2.05;;;1.95;;
6979;SDS011;3530;52.832;10.680;2023-05-07T14:01:35;3.30;;;3.00;;
6979;SDS011;3530;52.832;10.680;2023-05-07T14:04:21;3.20;;;3.00;;
6979;SDS011;3530;52.832;10.680;2023-05-07T14:07:07;4.18;;;3.38;;
6979;SDS011;3530;52.832;10.680;2023-05-07T14:09:52;2.90;;;2.80;;
6979;SDS011;3530;52.832;10.680;2023-05-07T14:12:38;3.30;;;3.10;;
6979;SDS011;3530;52.832;10.680;2023-05-07T14:15:24;3.53;;;3.22;;
6979;SDS011;3530;52.832;10.680;2023-05-07T14:18:10;2.45;;;2.35;;
6979;SDS011;3530;52.832;10.680;2023-05-07T14:20:55;3.33;;;3.13;;
6979;SDS011;3530;52.832;10.680;2023-05-07T14:23:41;4.25;;;3.10;;
6979;SDS011;3530;52.832;10.680;2023-05-07T14:26:27;5.90;;;3.67;;
6979;SDS011;3530;52.832;10.680;2023-05-07T14:29:12;3.55;;;3.25;;
6979;SDS011;3530;52.832;10.680;2023-05-07T14:31:58;3.00;;;2.80;;
6979;SDS011;3530;52.832;10.680;2023-05-07T14:34:44;3.63;;;3.33;;
6979;SDS011;3530;52.832;10.680;2023-05-07T14:37:30;4.15;;;3.30;;
6979;SDS011;3530;52.832;10.680;2023-05-07T14:40:16;3.38;;;3.08;;
6979;SDS011;3530;52.832;10.680;2023-05-07T14:43:01;3.83;;;3.53;;
6979;SDS011;3530;52.832;10.680;2023-05-07T14:45:47;2.95;;;2.75;;
6979;SDS011;3530;52.832;10.680;2023-05-07T14:48:33;4.40;;;3.40;;
6979;SDS011;3530;52.832;10.680;2023-05-07T14:51:18;2.70;;;2.58;;
6979;SDS011;3530;52.832;10.680;2023-05-07T14:54:04;3.13;;;2.95;;
6979;SDS011;3530;52.832;10.680;2023-05-07T14:56:50;2.90;;;2.70;;
6979;SDS011;3530;52.832;10.680;2023-05-07T14:59:35;2.67;;;2.47;;
6979;SDS011;3530;52.832;10.680;2023-05-07T15:02:23;2.95;;;2.75;;
6979;SDS011;3530;52.832;10.680;2023-05-07T15:05:08;3.10;;;2.90;;
6979;SDS011;3530;52.832;10.680;2023-05-07T15:07:54;2.65;;;2.50;;
6979;SDS011;3530;52.832;10.680;2023-05-07T15:10:41;2.45;;;2.35;;
6979;SDS011;3530;52.832;10.680;2023-05-07T15:13:26;2.80;;;2.60;;
6979;SDS011;3530;52.832;10.680;2023-05-07T15:16:12;2.78;;;2.60;;
6979;SDS011;3530;52.832;10.680;2023-05-07T15:18:58;2.45;;;2.35;;
6979;SDS011;3530;52.832;10.680;2023-05-07T15:21:44;2.50;;;2.28;;
6979;SDS011;3530;52.832;10.680;2023-05-07T15:24:29;3.17;;;2.55;;
6979;SDS011;3530;52.832;10.680;2023-05-07T15:27:16;2.00;;;1.90;;
6979;SDS011;3530;52.832;10.680;2023-05-07T15:30:02;2.42;;;2.33;;
6979;SDS011;3530;52.832;10.680;2023-05-07T15:32:48;2.83;;;2.13;;
6979;SDS011;3530;52.832;10.680;2023-05-07T15:35:34;2.88;;;2.65;;
6979;SDS011;3530;52.832;10.680;2023-05-07T15:38:19;1.77;;;1.77;;
6979;SDS011;3530;52.832;10.680;2023-05-07T15:41:05;1.95;;;1.85;;
6979;SDS011;3530;52.832;10.680;2023-05-07T15:43:51;2.50;;;2.30;;
6979;SDS011;3530;52.832;10.680;2023-05-07T15:46:37;2.22;;;2.13;;
6979;SDS011;3530;52.832;10.680;2023-05-07T15:49:23;4.38;;;2.55;;
6979;SDS011;3530;52.832;10.680;2023-05-07T15:52:08;2.10;;;2.00;;
6979;SDS011;3530;52.832;10.680;2023-05-07T15:54:58;3.60;;;2.80;;
6979;SDS011;3530;52.832;10.680;2023-05-07T15:57:44;2.63;;;2.42;;
6979;SDS011;3530;52.832;10.680;2023-05-07T16:00:30;2.55;;;2.42;;
6979;SDS011;3530;52.832;10.680;2023-05-07T16:03:15;2.70;;;2.50;;
6979;SDS011;3530;52.832;10.680;2023-05-07T16:06:03;2.90;;;2.70;;
6979;SDS011;3530;52.832;10.680;2023-05-07T16:08:49;2.95;;;2.75;;
6979;SDS011;3530;52.832;10.680;2023-05-07T16:11:34;3.15;;;2.90;;
6979;SDS011;3530;52.832;10.680;2023-05-07T16:14:20;2.88;;;2.67;;
6979;SDS011;3530;52.832;10.680;2023-05-07T16:17:06;3.10;;;2.80;;
6979;SDS011;3530;52.832;10.680;2023-05-07T16:19:52;2.40;;;2.30;;
6979;SDS011;3530;52.832;10.680;2023-05-07T16:22:38;2.47;;;2.38;;
6979;SDS011;3530;52.832;10.680;2023-05-07T16:25:23;2.60;;;2.40;;
6979;SDS011;3530;52.832;10.680;2023-05-07T16:28:09;2.40;;;2.30;;
6979;SDS011;3530;52.832;10.680;2023-05-07T16:30:55;2.83;;;2.63;;
6979;SDS011;3530;52.832;10.680;2023-05-07T16:33:41;2.17;;;2.08;;
6979;SDS011;3530;52.832;10.680;2023-05-07T16:36:26;2.55;;;2.35;;
6979;SDS011;3530;52.832;10.680;2023-05-07T16:39:13;2.60;;;2.50;;
6979;SDS011;3530;52.832;10.680;2023-05-07T16:41:58;2.67;;;2.50;;
6979;SDS011;3530;52.832;10.680;2023-05-07T16:44:44;2.70;;;2.55;;
6979;SDS011;3530;52.832;10.680;2023-05-07T16:47:30;2.95;;;2.75;;
6979;SDS011;3530;52.832;10.680;2023-05-07T16:50:16;2.47;;;2.28;;
6979;SDS011;3530;52.832;10.680;2023-05-07T16:53:01;3.67;;;2.17;;
6979;SDS011;3530;52.832;10.680;2023-05-07T16:55:47;2.30;;;2.20;;
6979;SDS011;3530;52.832;10.680;2023-05-07T16:58:33;4.80;;;2.53;;
6979;SDS011;3530;52.832;10.680;2023-05-07T17:01:18;2.67;;;2.47;;
6979;SDS011;3530;52.832;10.680;2023-05-07T17:04:04;3.63;;;2.50;;
6979;SDS011;3530;52.832;10.680;2023-05-07T17:06:50;3.03;;;2.83;;
6979;SDS011;3530;52.832;10.680;2023-05-07T17:09:36;2.42;;;2.22;;